Time;durP1;ratioP1;P1;durP2;ratioP2;P2;SDS_P1;SDS_P2;PMS_P1;PMS_P2;Temp;Humidity;BMP_temperature;BMP_pressure;BME280_temperature;BME280_humidity;BME280_pressure;Samples;Min_cycle;Max_cycle;Signal;HPM_P1;HPM_P2
2021/03/10 00:01:42;;;;;;;8.80;4.40;;;;;;;-3.70;65.07;101385.66;5054136;28;20525;-73
2021/03/10 00:04:07;;;;;;;8.70;4.80;;;;;;;-3.65;65.59;101378.78;5052583;28;20183;-73
2021/03/10 00:06:32;;;;;;;10.73;4.90;;;;;;;-3.55;65.78;101381.50;5052179;28;20659;-71
2021/03/10 00:08:58;;;;;;;15.70;5.93;;;;;;;-3.48;66.15;101388.56;5051917;28;20579;-72
2021/03/10 00:11:23;;;;;;;11.20;6.00;;;;;;;-3.42;66.22;101387.75;5052096;28;20164;-71
2021/03/10 00:13:48;;;;;;;11.97;5.07;;;;;;;-3.40;65.65;101393.00;5052125;28;20181;-72
2021/03/10 00:16:14;;;;;;;11.23;4.50;;;;;;;-3.52;64.93;101393.72;5053028;28;20189;-72
2021/03/10 00:18:39;;;;;;;8.40;3.63;;;;;;;-3.69;64.62;101388.28;5052169;28;20654;-72
2021/03/10 00:21:04;;;;;;;9.13;4.37;;;;;;;-3.82;65.45;101388.94;5051946;28;20277;-72
2021/03/10 00:23:30;;;;;;;6.87;3.73;;;;;;;-3.95;65.78;101392.25;5052034;28;20309;-72
2021/03/10 00:25:55;;;;;;;9.53;4.50;;;;;;;-3.96;66.82;101396.59;5054106;28;20208;-72
2021/03/10 00:28:20;;;;;;;7.43;4.80;;;;;;;-3.93;67.04;101390.53;5052421;28;20192;-72
2021/03/10 00:30:46;;;;;;;7.50;4.10;;;;;;;-3.87;66.17;101388.88;5052163;28;20191;-72
2021/03/10 00:33:11;;;;;;;8.70;4.33;;;;;;;-3.86;66.34;101393.25;5035638;28;20178;-72
2021/03/10 00:35:36;;;;;;;6.47;3.80;;;;;;;-3.90;66.64;101382.75;5052083;28;20311;-73
2021/03/10 00:38:02;;;;;;;8.87;4.00;;;;;;;-3.90;66.49;101393.19;5052426;28;20210;-72
2021/03/10 00:40:28;;;;;;;5.80;3.27;;;;;;;-3.94;66.92;101391.38;5052652;28;20672;-72
2021/03/10 00:42:53;;;;;;;9.30;4.70;;;;;;;-3.89;67.23;101388.00;5051460;28;20176;-71
2021/03/10 00:45:19;;;;;;;10.37;4.43;;;;;;;-3.91;67.44;101402.75;5053521;28;20457;-72
2021/03/10 00:47:44;;;;;;;9.60;4.73;;;;;;;-3.86;67.47;101393.25;5035078;28;20175;-72
2021/03/10 00:50:10;;;;;;;7.37;4.50;;;;;;;-3.82;67.03;101395.03;5051976;28;20286;-71
2021/03/10 00:52:36;;;;;;;11.03;4.90;;;;;;;-3.75;67.10;101392.50;5035100;28;20547;-72
2021/03/10 00:55:01;;;;;;;13.07;5.53;;;;;;;-3.59;67.15;101390.16;5051401;28;20181;-70
2021/03/10 00:57:26;;;;;;;16.37;5.30;;;;;;;-3.52;66.66;101383.28;5051668;28;20687;-71
2021/03/10 00:59:51;;;;;;;11.80;5.90;;;;;;;-3.55;66.67;101388.47;5051254;28;20504;-71
2021/03/10 01:02:17;;;;;;;11.30;6.10;;;;;;;-3.58;67.36;101385.81;5054086;28;20186;-72
2021/03/10 01:04:42;;;;;;;14.27;6.53;;;;;;;-3.53;66.90;101394.56;5038590;28;20192;-72
2021/03/10 01:07:07;;;;;;;16.40;6.03;;;;;;;-3.56;66.79;101400.63;5056085;28;20790;-72
2021/03/10 01:09:33;;;;;;;10.53;5.53;;;;;;;-3.63;67.23;101383.16;5054901;28;20182;-71
2021/03/10 01:11:58;;;;;;;12.77;6.20;;;;;;;-3.70;66.31;101386.53;5056363;28;20212;-71
2021/03/10 01:14:23;;;;;;;10.97;6.00;;;;;;;-3.92;67.24;101392.28;5055165;28;20213;-72
2021/03/10 01:16:49;;;;;;;7.97;4.33;;;;;;;-4.02;67.87;101391.28;5055859;28;20195;-71
2021/03/10 01:19:15;;;;;;;15.23;5.80;;;;;;;-4.02;68.85;101393.88;5056613;28;20176;-72
2021/03/10 01:21:40;;;;;;;10.33;5.33;;;;;;;-4.08;68.04;101387.72;5055398;28;20173;-72
2021/03/10 01:24:10;;;;;;;12.80;6.23;;;;;;;-4.14;68.82;101386.72;5038983;28;20176;-72
2021/03/10 01:26:35;;;;;;;10.87;5.60;;;;;;;-4.16;68.74;101379.75;5038571;28;20540;-72
2021/03/10 01:29:00;;;;;;;8.20;4.63;;;;;;;-4.25;68.97;101387.41;5055440;28;20412;-73
2021/03/10 01:31:26;;;;;;;10.00;4.33;;;;;;;-4.38;68.47;101382.88;5054977;28;20714;-74
2021/03/10 01:33:51;;;;;;;9.33;4.50;;;;;;;-4.48;69.25;101379.22;5055854;28;20186;-72
2021/03/10 01:36:16;;;;;;;13.80;5.07;;;;;;;-4.45;69.36;101382.78;5054900;28;20188;-72
2021/03/10 01:38:42;;;;;;;15.10;7.20;;;;;;;-4.25;69.10;101375.28;5056150;28;20199;-72
2021/03/10 01:41:07;;;;;;;17.07;7.10;;;;;;;-4.15;68.83;101371.06;5056670;28;20207;-72
2021/03/10 01:43:33;;;;;;;18.57;8.60;;;;;;;-4.07;68.42;101373.81;5037837;28;20665;-72
2021/03/10 01:45:58;;;;;;;13.43;6.47;;;;;;;-4.11;68.19;101365.91;5037595;28;20191;-72
2021/03/10 01:48:24;;;;;;;12.17;6.33;;;;;;;-4.18;68.66;101366.69;5054447;28;20168;-72
2021/03/10 01:50:50;;;;;;;16.03;7.03;;;;;;;-4.18;68.54;101364.06;5055701;28;20168;-72
2021/03/10 01:53:15;;;;;;;18.63;7.40;;;;;;;-4.23;68.83;101362.25;5056650;28;20412;-72
2021/03/10 01:55:40;;;;;;;15.30;7.07;;;;;;;-4.25;68.87;101361.34;5056861;28;20207;-72
2021/03/10 01:58:06;;;;;;;15.30;6.80;;;;;;;-4.21;68.58;101356.22;5041143;28;20585;-72
2021/03/10 02:00:31;;;;;;;12.33;6.57;;;;;;;-4.35;69.02;101357.75;5057345;28;20206;-72
2021/03/10 02:02:57;;;;;;;14.90;5.87;;;;;;;-4.42;69.23;101359.38;5057946;28;20176;-72
2021/03/10 02:05:24;;;;;;;12.63;6.03;;;;;;;-4.40;70.32;101359.41;5053826;28;20254;-72
2021/03/10 02:08:17;;;;;;;12.37;6.17;;;;;;;-4.37;69.42;101359.44;5053828;28;20517;-72
2021/03/10 02:11:12;;;;;;;14.57;6.37;;;;;;;-4.36;69.25;101358.59;5054949;28;20401;-72
2021/03/10 02:14:01;;;;;;;13.97;6.43;;;;;;;-4.35;69.59;101360.34;5036558;28;20928;-72
2021/03/10 02:16:55;;;;;;;16.33;6.97;;;;;;;-4.29;68.98;101365.66;5036927;28;20442;-72
2021/03/10 02:20:01;;;;;;;13.43;6.67;;;;;;;-4.35;68.81;101355.13;5053535;28;20905;-72
2021/03/10 02:22:43;;;;;;;14.50;5.67;;;;;;;-4.43;68.69;101362.84;5054908;28;20396;-72
2021/03/10 02:25:19;;;;;;;8.80;4.97;;;;;;;-4.49;69.71;101365.31;5053499;28;20414;-72
2021/03/10 02:27:46;;;;;;;10.63;6.03;;;;;;;-4.54;69.74;101372.19;5054550;28;20415;-72
2021/03/10 02:30:36;;;;;;;10.37;5.30;;;;;;;-4.58;70.05;101361.69;5053612;28;20485;-72
2021/03/10 02:33:05;;;;;;;10.27;5.10;;;;;;;-4.61;70.08;101372.06;5053642;28;20425;-72
2021/03/10 02:35:31;;;;;;;11.77;6.17;;;;;;;-4.64;70.75;101370.28;5053467;28;20439;-72
2021/03/10 02:37:58;;;;;;;14.43;6.97;;;;;;;-4.69;71.01;101368.44;5053322;28;20413;-72
2021/03/10 02:40:25;;;;;;;14.50;6.30;;;;;;;-4.71;70.84;101368.41;5053478;28;20207;-72
2021/03/10 02:42:51;;;;;;;10.03;5.97;;;;;;;-4.76;70.92;101373.56;5052961;28;21027;-72
2021/03/10 02:45:16;;;;;;;10.50;5.60;;;;;;;-4.79;71.11;101365.69;5053184;28;20451;-73
2021/03/10 02:47:42;;;;;;;7.70;4.50;;;;;;;-4.87;71.24;101369.84;5054108;28;20190;-72
2021/03/10 02:50:08;;;;;;;12.00;5.97;;;;;;;-4.86;71.57;101366.41;5054098;28;20247;-72
2021/03/10 02:52:34;;;;;;;11.67;6.23;;;;;;;-4.85;71.79;101360.34;5052713;28;20190;-72
2021/03/10 02:54:59;;;;;;;16.30;6.63;;;;;;;-4.80;71.92;101365.66;5052825;28;20408;-72
2021/03/10 02:57:25;;;;;;;15.93;7.60;;;;;;;-4.69;71.18;101363.22;5052403;28;20679;-72
2021/03/10 02:59:51;;;;;;;19.80;8.70;;;;;;;-4.54;70.44;101360.88;5052539;28;20195;-72
2021/03/10 03:02:16;;;;;;;20.20;8.50;;;;;;;-4.52;70.14;101367.00;5052683;28;20177;-72
2021/03/10 03:04:42;;;;;;;11.43;6.30;;;;;;;-4.54;70.58;101363.47;5035822;28;20819;-73
2021/03/10 03:07:07;;;;;;;12.13;5.90;;;;;;;-4.65;70.06;101367.66;5053779;28;20204;-72
2021/03/10 03:09:33;;;;;;;9.63;5.10;;;;;;;-4.78;71.07;101372.66;5053034;28;20183;-72
2021/03/10 03:11:59;;;;;;;13.17;5.10;;;;;;;-4.90;70.75;101366.31;5053703;28;20176;-72
2021/03/10 03:14:26;;;;;;;14.30;5.97;;;;;;;-4.97;71.45;101361.84;5052411;28;20239;-71
2021/03/10 03:16:52;;;;;;;18.43;6.67;;;;;;;-4.89;71.79;101365.47;5052278;28;20199;-71
2021/03/10 03:19:17;;;;;;;18.00;7.17;;;;;;;-4.83;72.35;101365.56;5052452;28;20408;-72
2021/03/10 03:21:43;;;;;;;19.00;7.60;;;;;;;-4.77;71.46;101363.97;5053506;28;20653;-71
2021/03/10 03:24:09;;;;;;;16.43;7.23;;;;;;;-4.75;71.22;101361.41;5052316;28;20202;-72
2021/03/10 03:26:34;;;;;;;22.93;7.33;;;;;;;-4.74;71.03;101366.63;5051354;28;20202;-70
2021/03/10 03:29:00;;;;;;;20.10;9.80;;;;;;;-4.60;70.10;101361.66;5052787;28;20503;-71
2021/03/10 03:31:27;;;;;;;18.33;8.87;;;;;;;-4.59;70.62;101367.75;5053685;28;20221;-71
2021/03/10 03:33:52;;;;;;;18.80;8.40;;;;;;;-4.68;70.29;101367.59;5035692;28;20586;-72
2021/03/10 03:36:17;;;;;;;12.83;6.77;;;;;;;-4.80;70.64;101363.06;5051989;28;20436;-72
2021/03/10 03:38:43;;;;;;;13.73;6.13;;;;;;;-4.93;71.08;101367.13;5052583;28;20172;-71
2021/03/10 03:41:08;;;;;;;11.67;6.17;;;;;;;-4.96;72.15;101369.69;5052389;28;20667;-72
2021/03/10 03:43:34;;;;;;;10.17;4.80;;;;;;;-5.05;71.52;101367.81;5052415;28;20236;-72
2021/03/10 03:45:59;;;;;;;14.63;6.20;;;;;;;-5.10;72.56;101379.84;5035409;28;20195;-72
2021/03/10 03:48:25;;;;;;;12.03;6.03;;;;;;;-5.16;72.63;101376.25;5052465;28;20176;-72
2021/03/10 03:50:50;;;;;;;11.43;6.60;;;;;;;-5.19;72.95;101381.41;5051975;28;20171;-72
2021/03/10 03:53:16;;;;;;;13.43;6.50;;;;;;;-5.14;72.99;101379.78;5052589;28;20182;-71
2021/03/10 03:55:41;;;;;;;17.90;8.50;;;;;;;-4.99;72.16;101382.66;5052398;28;20224;-72
2021/03/10 03:58:06;;;;;;;17.30;7.30;;;;;;;-5.06;72.25;101380.78;5053576;28;20160;-72
2021/03/10 04:00:32;;;;;;;28.40;6.70;;;;;;;-5.18;72.73;101384.03;5052098;28;20204;-72
2021/03/10 04:02:58;;;;;;;15.70;6.43;;;;;;;-5.22;72.41;101383.91;5053763;28;20187;-72
2021/03/10 04:05:23;;;;;;;15.57;7.43;;;;;;;-5.26;72.58;101379.50;5052183;28;20171;-71
2021/03/10 04:07:57;;;;;;;12.60;6.47;;;;;;;-5.38;72.91;101372.34;5052178;28;20187;-71
2021/03/10 04:10:27;;;;;;;16.17;7.90;;;;;;;-5.43;74.04;101382.66;5053203;28;20168;-72
2021/03/10 04:12:52;;;;;;;18.63;6.67;;;;;;;-5.53;73.91;101385.03;5053576;28;20416;-71
2021/03/10 04:15:18;;;;;;;21.60;8.10;;;;;;;-5.59;74.88;101383.16;5053062;28;20788;-72
2021/03/10 04:17:44;;;;;;;18.83;8.13;;;;;;;-5.64;74.46;101377.00;5052171;28;20259;-72
2021/03/10 04:20:12;;;;;;;13.83;7.33;;;;;;;-5.68;74.46;101377.78;5059258;28;20225;-71
2021/03/10 04:22:38;;;;;;;19.57;7.17;;;;;;;-5.72;74.33;101386.34;5062974;28;20190;-71
2021/03/10 04:25:05;;;;;;;11.83;6.37;;;;;;;-5.81;74.45;101386.16;5053814;28;20413;-72
2021/03/10 04:27:30;;;;;;;16.13;6.83;;;;;;;-5.84;74.29;101380.91;5051899;28;20290;-71
2021/03/10 04:29:56;;;;;;;13.47;7.13;;;;;;;-5.87;75.13;101386.03;5035325;28;20854;-72
2021/03/10 04:32:21;;;;;;;14.97;7.03;;;;;;;-5.88;74.92;101382.56;5053232;28;20175;-72
2021/03/10 04:34:46;;;;;;;15.13;7.13;;;;;;;-5.95;74.67;101369.38;5051527;28;20179;-72
2021/03/10 04:37:11;;;;;;;18.13;8.43;;;;;;;-6.07;74.89;101376.06;5054553;28;20195;-72
2021/03/10 04:39:37;;;;;;;14.77;7.77;;;;;;;-6.15;76.05;101375.03;5056138;28;20196;-72
2021/03/10 04:42:02;;;;;;;20.90;9.23;;;;;;;-6.06;76.02;101374.34;5056813;28;20171;-72
2021/03/10 04:44:28;;;;;;;24.87;9.20;;;;;;;-6.07;75.33;101373.47;5056882;28;20210;-71
2021/03/10 04:46:53;;;;;;;27.03;9.17;;;;;;;-6.13;75.62;101378.53;5055503;28;20229;-72
2021/03/10 04:49:18;;;;;;;23.03;7.93;;;;;;;-6.22;75.11;101377.44;5055165;28;20229;-71
2021/03/10 04:51:43;;;;;;;24.83;9.80;;;;;;;-6.20;76.28;101386.16;5056905;28;20623;-72
2021/03/10 04:54:09;;;;;;;25.27;11.30;;;;;;;-6.14;75.09;101379.38;5056648;28;20171;-72
2021/03/10 04:56:34;;;;;;;31.13;10.30;;;;;;;-6.12;75.04;101382.88;5054692;28;20207;-72
2021/03/10 04:58:59;;;;;;;33.57;12.47;;;;;;;-6.11;74.67;101381.16;5056651;28;20536;-72
2021/03/10 05:01:25;;;;;;;26.93;10.57;;;;;;;-6.05;75.04;101384.78;5055034;28;20196;-72
2021/03/10 05:03:50;;;;;;;37.07;12.17;;;;;;;-5.89;74.38;101386.00;5056243;28;20176;-71
2021/03/10 05:06:15;;;;;;;34.73;10.87;;;;;;;-5.60;71.79;101376.22;5054650;28;20281;-72
2021/03/10 05:08:40;;;;;;;28.40;10.57;;;;;;;-5.62;72.16;101387.41;5055133;28;20550;-72
2021/03/10 05:11:06;;;;;;;25.27;9.47;;;;;;;-5.70;72.72;101388.13;5055965;28;20175;-71
2021/03/10 05:13:31;;;;;;;30.03;10.97;;;;;;;-5.66;72.88;101389.09;5056394;28;20176;-72
2021/03/10 05:15:56;;;;;;;30.60;11.30;;;;;;;-5.61;72.48;101384.84;5055070;28;20199;-72
2021/03/10 05:18:22;;;;;;;24.40;9.27;;;;;;;-5.52;72.25;101395.47;5056019;28;20581;-71
2021/03/10 05:20:47;;;;;;;30.40;10.30;;;;;;;-5.43;71.61;101393.06;5055898;28;20286;-72
2021/03/10 05:23:12;;;;;;;33.60;11.57;;;;;;;-5.40;72.04;101397.44;5056310;28;20222;-72
2021/03/10 05:25:38;;;;;;;32.83;9.83;;;;;;;-5.36;71.36;101402.75;5038879;28;20199;-72
2021/03/10 05:28:03;;;;;;;24.70;8.53;;;;;;;-5.33;70.49;101399.31;5056637;28;20175;-72
2021/03/10 05:30:28;;;;;;;24.63;8.37;;;;;;;-5.19;69.68;101400.50;5056795;28;20668;-72
2021/03/10 05:32:53;;;;;;;21.80;7.97;;;;;;;-5.15;69.00;101402.31;5055648;28;20648;-72
2021/03/10 05:35:19;;;;;;;20.90;7.90;;;;;;;-5.00;68.21;101404.34;5056638;28;20175;-73
2021/03/10 05:37:44;;;;;;;19.03;7.27;;;;;;;-4.93;68.02;101398.38;5056344;28;20229;-72
2021/03/10 05:40:10;;;;;;;23.97;8.40;;;;;;;-4.86;67.44;101410.66;5056379;28;20187;-72
2021/03/10 05:42:41;;;;;;;16.93;6.83;;;;;;;-4.49;62.78;101411.34;5054885;28;20683;-72
2021/03/10 05:45:10;;;;;;;12.07;6.43;;;;;;;-4.08;60.61;101408.56;5054483;28;20587;-72
2021/03/10 05:47:36;;;;;;;18.90;7.07;;;;;;;-3.95;62.50;101410.50;5055973;28;20468;-71
2021/03/10 05:50:01;;;;;;;27.43;9.73;;;;;;;-4.36;66.33;101413.31;5037501;28;20408;-72
2021/03/10 05:52:26;;;;;;;17.43;7.20;;;;;;;-4.19;62.63;101411.84;5056090;28;20172;-71
2021/03/10 05:54:54;;;;;;;19.90;7.37;;;;;;;-4.18;63.20;101400.56;5055513;28;20175;-71
2021/03/10 05:57:19;;;;;;;21.63;9.00;;;;;;;-4.22;64.18;101411.81;5087450;22;20254;-68
2021/03/10 05:59:44;;;;;;;22.37;8.60;;;;;;;-4.25;63.67;101416.97;5074059;28;20483;-68
2021/03/10 06:02:09;;;;;;;18.50;7.67;;;;;;;-4.32;64.16;101414.25;5074765;28;20265;-63
2021/03/10 06:04:41;;;;;;;17.60;7.10;;;;;;;-4.25;62.76;101406.53;5074926;28;20175;-64
2021/03/10 06:07:27;;;;;;;16.67;6.67;;;;;;;-4.21;62.10;101410.94;5073328;28;20200;-63
2021/03/10 06:10:00;;;;;;;14.07;6.57;;;;;;;-4.07;62.36;101410.31;5073207;28;20426;-64
2021/03/10 06:12:43;;;;;;;7.00;4.03;;;;;;;-3.84;59.12;101398.47;5056481;28;20420;-63
2021/03/10 06:15:10;;;;;;;10.97;4.70;;;;;;;-3.63;57.53;101397.94;5073242;28;20416;-63
2021/03/10 06:17:42;;;;;;;9.67;4.80;;;;;;;-3.46;57.08;101402.50;5074324;28;20428;-64
2021/03/10 06:20:09;;;;;;;9.40;4.87;;;;;;;-3.40;57.70;101406.03;5073070;28;20927;-63
2021/03/10 06:22:35;;;;;;;16.20;6.33;;;;;;;-3.38;59.21;101404.34;5073145;28;20935;-64
2021/03/10 06:25:01;;;;;;;9.13;5.03;;;;;;;-3.39;60.00;101408.66;5056290;28;20416;-64
2021/03/10 06:27:27;;;;;;;25.60;6.47;;;;;;;-3.43;62.42;101411.22;5073149;28;20284;-67
2021/03/10 06:29:57;;;;;;;21.27;7.20;;;;;;;-3.47;63.21;101403.34;5057089;28;20503;-68
2021/03/10 06:32:22;;;;;;;15.37;6.97;;;;;;;-3.44;64.04;101406.88;5056827;28;20260;-68
2021/03/10 06:34:51;;;;;;;15.90;6.37;;;;;;;-3.38;62.26;101404.34;5056786;28;20488;-68
2021/03/10 06:37:31;;;;;;;13.43;6.33;;;;;;;-3.29;59.45;101399.25;5073297;28;20201;-69
2021/03/10 06:40:26;;;;;;;12.97;6.13;;;;;;;-3.10;58.06;101406.44;5073155;28;20451;-69
2021/03/10 06:42:55;;;;;;;11.17;5.77;;;;;;;-2.90;56.06;101414.50;5065012;28;20433;-68
2021/03/10 06:45:31;;;;;;;11.83;4.77;;;;;;;-2.71;54.88;101415.56;5074329;28;20480;-68
2021/03/10 06:47:56;;;;;;;11.70;5.03;;;;;;;-2.60;54.82;101419.19;5056186;28;20519;-69
2021/03/10 06:50:33;;;;;;;9.47;4.27;;;;;;;-2.52;54.71;101415.78;5056425;28;20518;-69
2021/03/10 06:52:59;;;;;;;14.47;5.43;;;;;;;-2.45;55.68;101418.44;5073268;28;20622;-69
2021/03/10 06:55:24;;;;;;;10.83;5.40;;;;;;;-2.38;55.60;101425.47;5056227;28;20420;-69
2021/03/10 06:57:51;;;;;;;13.90;5.40;;;;;;;-2.31;54.91;101430.78;5074202;28;20692;-68
2021/03/10 07:00:22;;;;;;;19.73;5.67;;;;;;;-2.21;55.16;101435.25;5072928;28;20204;-68
2021/03/10 07:02:48;;;;;;;15.87;8.53;;;;;;;-2.11;59.05;101441.44;5073774;28;20395;-68
2021/03/10 07:05:13;;;;;;;62.73;25.53;;;;;;;-2.37;61.14;101451.66;5072759;28;20745;-68
2021/03/10 07:07:39;;;;;;;63.73;24.67;;;;;;;-2.46;61.25;101453.28;5072656;28;20197;-68
2021/03/10 07:10:05;;;;;;;28.60;12.30;;;;;;;-2.43;60.73;101453.31;5072559;28;20182;-67
2021/03/10 07:12:30;;;;;;;20.93;10.10;;;;;;;-2.42;60.57;101452.47;5072165;28;20217;-68
2021/03/10 07:14:56;;;;;;;20.57;9.70;;;;;;;-2.34;60.90;101448.19;5073671;28;20896;-68
2021/03/10 07:17:23;;;;;;;18.53;8.30;;;;;;;-2.24;60.93;101445.66;5072468;28;20282;-68
2021/03/10 07:19:49;;;;;;;25.40;13.13;;;;;;;-2.13;60.78;101443.16;5072598;28;20200;-68
2021/03/10 07:22:21;;;;;;;43.07;17.77;;;;;;;-2.05;61.03;101446.72;5072489;28;20414;-68
2021/03/10 07:24:57;;;;;;;30.33;15.97;;;;;;;-1.97;59.48;101445.03;5055549;28;20454;-68
2021/03/10 07:27:24;;;;;;;31.30;15.73;;;;;;;-1.89;59.00;101452.91;5072040;28;20509;-67
2021/03/10 07:29:56;;;;;;;18.27;9.00;;;;;;;-1.76;54.82;101456.53;5072249;28;20878;-68
2021/03/10 07:32:23;;;;;;;11.60;6.07;;;;;;;-1.62;52.72;101455.75;5072594;28;20497;-67
2021/03/10 07:34:59;;;;;;;12.73;7.17;;;;;;;-1.48;53.30;101457.59;5072326;28;20583;-68
2021/03/10 07:37:25;;;;;;;16.37;7.47;;;;;;;-1.34;54.22;101463.78;5072072;28;20448;-67
2021/03/10 07:39:50;;;;;;;24.47;8.53;;;;;;;-1.24;55.65;101473.44;5072408;28;20474;-69
2021/03/10 07:42:17;;;;;;;22.07;10.87;;;;;;;-1.24;58.09;101470.81;5071957;28;20274;-69
2021/03/10 07:44:54;;;;;;;38.10;16.10;;;;;;;-1.28;59.07;101461.19;5072304;28;20250;-69
2021/03/10 07:47:20;;;;;;;21.43;9.97;;;;;;;-1.16;59.12;101458.63;5072541;28;20193;-69
2021/03/10 07:49:58;;;;;;;17.87;7.83;;;;;;;-0.98;57.52;101452.63;5072071;28;20700;-68
2021/03/10 07:52:26;;;;;;;15.33;7.47;;;;;;;-0.82;57.21;101456.16;5055589;28;20175;-68
2021/03/10 07:54:56;;;;;;;16.07;7.53;;;;;;;-0.70;55.95;101458.84;5056078;28;20692;-69
2021/03/10 07:57:21;;;;;;;16.93;6.50;;;;;;;-0.64;54.52;101464.97;5055150;28;20469;-67
2021/03/10 07:59:58;;;;;;;15.97;7.03;;;;;;;-0.58;54.55;101474.59;5071867;28;20205;-71
2021/03/10 08:02:25;;;;;;;10.47;5.10;;;;;;;-0.43;54.12;101469.38;5072478;28;20167;-69
2021/03/10 08:04:59;;;;;;;13.47;5.57;;;;;;;-0.27;53.48;101464.19;5055303;28;20204;-68
2021/03/10 08:07:29;;;;;;;14.90;5.60;;;;;;;-0.11;52.94;101468.56;5071850;28;20194;-68
2021/03/10 08:09:55;;;;;;;11.50;5.70;;;;;;;0.02;51.79;101467.72;5072273;28;20524;-68
2021/03/10 08:12:33;;;;;;;19.10;6.27;;;;;;;0.18;51.67;101461.56;5073660;28;20179;-68
2021/03/10 08:14:58;;;;;;;12.03;6.00;;;;;;;0.30;50.50;101464.16;5076023;28;20158;-69
2021/03/10 08:17:25;;;;;;;10.43;5.23;;;;;;;0.41;50.72;101460.69;5059214;28;20267;-67
2021/03/10 08:19:54;;;;;;;16.17;6.57;;;;;;;0.59;51.11;101450.13;5059145;28;20313;-69
2021/03/10 08:22:21;;;;;;;12.00;5.60;;;;;;;0.72;50.64;101441.31;5075853;28;20182;-69
2021/03/10 08:24:46;;;;;;;17.17;7.47;;;;;;;0.81;50.40;101441.31;5077119;28;20658;-70
2021/03/10 08:27:11;;;;;;;26.43;8.50;;;;;;;0.81;50.64;101435.19;5075796;28;20203;-69
2021/03/10 08:29:46;;;;;;;15.10;6.90;;;;;;;0.94;50.53;101426.38;5077185;28;20179;-69
2021/03/10 08:32:12;;;;;;;15.10;5.70;;;;;;;0.97;50.38;101433.38;5076335;28;20159;-69
2021/03/10 08:34:38;;;;;;;13.10;5.87;;;;;;;1.12;51.26;101430.69;5075714;28;20171;-69
2021/03/10 08:37:06;;;;;;;13.40;5.67;;;;;;;1.24;50.74;101431.50;5075682;28;20297;-69
2021/03/10 08:39:31;;;;;;;26.30;6.20;;;;;;;1.39;50.52;101427.03;5076693;28;20186;-69
2021/03/10 08:41:57;;;;;;;14.40;5.30;;;;;;;1.57;49.83;101424.28;5058670;28;20242;-69
2021/03/10 08:44:24;;;;;;;10.80;5.03;;;;;;;1.77;48.75;101417.09;5076773;28;20194;-69
2021/03/10 08:46:55;;;;;;;9.10;5.67;;;;;;;1.99;48.17;101424.84;5075400;28;20241;-69
2021/03/10 08:49:21;;;;;;;11.27;4.73;;;;;;;2.20;47.25;101435.19;5075472;28;20697;-69
2021/03/10 08:51:48;;;;;;;11.27;4.33;;;;;;;2.47;46.77;101429.66;5076443;28;20172;-70
2021/03/10 08:54:16;;;;;;;11.10;5.33;;;;;;;2.69;46.20;101432.06;5058404;28;20271;-69
2021/03/10 08:56:50;;;;;;;11.57;5.30;;;;;;;2.90;46.03;101433.56;5075100;28;20216;-70
2021/03/10 08:59:17;;;;;;;11.40;4.77;;;;;;;3.01;45.58;101421.16;5075336;28;20173;-70
2021/03/10 09:01:50;;;;;;;9.07;4.30;;;;;;;3.21;45.28;101426.16;5075031;28;20213;-70
2021/03/10 09:04:25;;;;;;;12.50;4.77;;;;;;;3.45;44.06;101420.56;5075449;28;20265;-70
2021/03/10 09:06:51;;;;;;;10.20;4.63;;;;;;;3.57;42.61;101417.72;5058497;28;20201;-70
2021/03/10 09:09:17;;;;;;;10.47;4.47;;;;;;;3.74;42.63;101409.56;5074978;28;20190;-69
2021/03/10 09:11:43;;;;;;;11.80;4.70;;;;;;;3.92;43.94;101411.03;5074778;28;20174;-68
2021/03/10 09:14:08;;;;;;;7.07;4.00;;;;;;;4.08;43.61;101401.94;5057967;28;20657;-69
2021/03/10 09:16:34;;;;;;;10.77;4.77;;;;;;;4.12;43.39;101416.88;5057705;28;20206;-69
2021/03/10 09:19:00;;;;;;;8.03;3.83;;;;;;;4.35;41.24;101412.03;5074327;28;20192;-68
2021/03/10 09:21:37;;;;;;;6.20;3.43;;;;;;;3.82;39.74;101420.88;5074412;28;20251;-68
2021/03/10 09:24:03;;;;;;;7.43;3.13;;;;;;;4.05;38.47;101416.06;5074371;28;20170;-69
2021/03/10 09:26:39;;;;;;;5.63;2.93;;;;;;;4.37;37.60;101419.94;5074593;28;20559;-68
2021/03/10 09:29:04;;;;;;;6.20;3.00;;;;;;;4.56;37.94;101420.47;5074643;28;20231;-69
2021/03/10 09:31:30;;;;;;;8.17;3.20;;;;;;;5.01;37.44;101418.69;5074253;28;20636;-68
2021/03/10 09:34:01;;;;;;;6.23;2.57;;;;;;;5.33;36.53;101424.19;5057590;28;20182;-69
2021/03/10 09:36:27;;;;;;;7.23;3.20;;;;;;;5.90;35.40;101412.28;5074243;28;20195;-69
2021/03/10 09:38:53;;;;;;;5.17;2.97;;;;;;;5.74;34.91;101417.06;5074622;28;20576;-69
2021/03/10 09:41:23;;;;;;;5.90;2.67;;;;;;;6.07;33.51;101415.41;5073934;28;20291;-69
2021/03/10 09:43:59;;;;;;;3.53;2.30;;;;;;;6.62;32.19;101418.38;5074190;28;20172;-69
2021/03/10 09:46:25;;;;;;;20.17;3.70;;;;;;;6.97;32.51;101420.94;5057583;28;20561;-69
2021/03/10 09:48:50;;;;;;;6.57;3.60;;;;;;;6.86;32.31;101412.41;5075322;28;20239;-69
2021/03/10 09:51:16;;;;;;;6.13;3.00;;;;;;;6.88;32.23;101413.25;5074147;28;20171;-69
2021/03/10 09:53:48;;;;;;;4.77;2.73;;;;;;;7.29;30.32;101408.50;5057297;28;20227;-69
2021/03/10 09:56:15;;;;;;;4.93;3.03;;;;;;;7.20;31.39;101405.22;5073683;28;20281;-69
2021/03/10 09:58:55;;;;;;;3.60;2.77;;;;;;;7.42;30.96;101402.75;5057807;28;20167;-69
2021/03/10 10:01:22;;;;;;;6.27;2.70;;;;;;;7.24;31.05;101402.47;5073815;28;20209;-69
2021/03/10 10:03:47;;;;;;;6.40;3.23;;;;;;;7.39;31.30;101399.34;5073681;28;20562;-69
2021/03/10 10:06:16;;;;;;;5.83;3.13;;;;;;;7.64;30.46;101400.31;5073611;28;20189;-69
2021/03/10 10:08:42;;;;;;;8.20;3.10;;;;;;;7.26;30.81;101404.16;5073754;28;20177;-69
2021/03/10 10:11:08;;;;;;;5.07;3.00;;;;;;;6.88;31.20;101406.16;5073567;28;20635;-69
2021/03/10 10:13:33;;;;;;;10.40;3.33;;;;;;;6.63;31.33;101407.75;5073628;28;20186;-69
2021/03/10 10:15:59;;;;;;;4.77;3.07;;;;;;;6.71;30.82;101415.50;5073557;28;20202;-69
2021/03/10 10:18:24;;;;;;;5.83;3.50;;;;;;;6.64;30.43;101403.31;5057192;28;20187;-69
2021/03/10 10:20:50;;;;;;;5.37;2.80;;;;;;;5.94;30.38;101409.53;5073223;28;20205;-69
2021/03/10 10:23:15;;;;;;;3.60;2.40;;;;;;;6.40;30.00;101400.44;5056626;28;20204;-69
2021/03/10 10:25:40;;;;;;;7.13;3.57;;;;;;;6.88;30.24;101406.16;5056666;28;20222;-69
2021/03/10 10:28:06;;;;;;;4.33;2.63;;;;;;;7.13;28.73;101406.31;5074375;28;20219;-69
2021/03/10 10:30:31;;;;;;;4.03;2.47;;;;;;;7.17;29.72;101404.44;5073479;28;20201;-68
2021/03/10 10:32:56;;;;;;;5.30;2.50;;;;;;;7.79;27.98;101397.16;5073350;28;20174;-68
2021/03/10 10:35:22;;;;;;;3.53;2.40;;;;;;;7.92;27.40;101404.75;5055603;28;20247;-68
2021/03/10 10:37:47;;;;;;;5.60;2.90;;;;;;;8.18;27.41;101394.13;5056240;28;20246;-68
2021/03/10 10:40:15;;;;;;;5.13;2.63;;;;;;;7.40;27.37;101398.41;5072953;28;20589;-68
2021/03/10 10:42:41;;;;;;;7.13;2.90;;;;;;;7.98;27.45;101397.44;5072914;28;20636;-68
2021/03/10 10:45:08;;;;;;;8.77;2.80;;;;;;;8.16;27.53;101391.47;5056055;28;20181;-69
2021/03/10 10:47:33;;;;;;;4.83;2.70;;;;;;;8.62;26.66;101392.59;5056076;28;20206;-68
2021/03/10 10:50:00;;;;;;;4.87;3.03;;;;;;;8.02;27.00;101387.56;5073168;28;20627;-68
2021/03/10 10:52:26;;;;;;;8.60;2.63;;;;;;;7.71;27.05;101383.25;5072823;28;20178;-68
2021/03/10 10:54:52;;;;;;;4.47;2.93;;;;;;;8.22;28.43;101379.78;5072808;28;20319;-69
2021/03/10 10:57:17;;;;;;;5.00;3.23;;;;;;;8.76;27.20;101376.13;5072475;28;20215;-69
2021/03/10 10:59:43;;;;;;;4.50;2.43;;;;;;;8.45;26.65;101374.56;5056250;28;20684;-69
2021/03/10 11:02:08;;;;;;;3.87;2.27;;;;;;;8.89;25.83;101364.06;5073083;28;20178;-68
2021/03/10 11:04:33;;;;;;;4.63;2.67;;;;;;;9.20;25.74;101358.47;5072429;28;20185;-68
2021/03/10 11:06:59;;;;;;;7.30;3.37;;;;;;;9.15;26.13;101360.44;5073428;28;20229;-67
2021/03/10 11:09:24;;;;;;;5.67;2.97;;;;;;;9.31;25.55;101358.06;5072198;28;20170;-68
2021/03/10 11:11:52;;;;;;;6.70;3.20;;;;;;;9.76;25.00;101347.34;5072150;28;20205;-68
2021/03/10 11:14:17;;;;;;;5.20;3.00;;;;;;;10.22;23.14;101354.28;5072448;28;20588;-68
2021/03/10 11:16:42;;;;;;;5.60;2.97;;;;;;;11.67;22.31;101350.25;5055107;28;20218;-68
2021/03/10 11:19:08;;;;;;;4.73;2.87;;;;;;;11.07;22.45;101346.88;5072368;28;20189;-68
2021/03/10 11:21:33;;;;;;;6.83;3.07;;;;;;;10.62;22.85;101342.72;5072051;28;20234;-68
2021/03/10 11:23:58;;;;;;;4.50;2.30;;;;;;;11.07;22.37;101332.66;5055283;28;20183;-68